createdAt,value
2019-06-10T00:00:31.268Z,15.54
2019-06-10T00:01:31.451Z,15.54
2019-06-10T00:02:30.992Z,15.54
2019-06-10T00:03:31.747Z,15.55
2019-06-10T00:04:30.898Z,15.55
2019-06-10T00:05:30.540Z,15.57
2019-06-10T00:06:31.078Z,15.58
2019-06-10T00:07:31.569Z,15.61
2019-06-10T00:08:30.831Z,15.62
2019-06-10T00:09:31.173Z,15.64
2019-06-10T00:10:31.185Z,15.67
2019-06-10T00:11:31.524Z,15.68
2019-06-10T00:12:31.483Z,15.68
2019-06-10T00:13:31.366Z,15.68
2019-06-10T00:14:31.479Z,15.70
2019-06-10T00:15:31.421Z,15.73
2019-06-10T00:16:30.895Z,15.75
2019-06-10T00:17:31.450Z,15.72
2019-06-10T00:18:38.805Z,15.75
2019-06-10T00:19:31.738Z,15.73
2019-06-10T00:20:30.621Z,15.73
2019-06-10T00:21:30.801Z,15.73
2019-06-10T00:22:31.555Z,15.76
2019-06-10T00:23:32.022Z,15.76
2019-06-10T00:24:31.496Z,15.79
2019-06-10T00:25:31.385Z,15.79
2019-06-10T00:26:30.776Z,15.79
2019-06-10T00:27:31.188Z,15.77
2019-06-10T00:28:31.173Z,15.79
2019-06-10T00:29:31.275Z,15.80
2019-06-10T00:30:31.343Z,15.80
2019-06-10T00:31:31.222Z,15.77
2019-06-10T00:32:32.042Z,15.76
2019-06-10T00:33:30.905Z,15.75
2019-06-10T00:34:34.885Z,15.75
2019-06-10T00:35:31.518Z,15.73
2019-06-10T00:36:30.885Z,15.70
2019-06-10T00:37:31.509Z,15.72
2019-06-10T00:38:31.920Z,15.70
2019-06-10T00:39:31.278Z,15.70
2019-06-10T00:40:31.699Z,15.70
2019-06-10T00:41:31.315Z,15.70
2019-06-10T00:42:31.427Z,15.68
2019-06-10T00:43:30.607Z,15.70
2019-06-10T00:44:31.124Z,15.67
2019-06-10T00:45:31.595Z,15.65
2019-06-10T00:46:31.631Z,15.61
2019-06-10T00:47:30.812Z,15.61
2019-06-10T00:48:32.363Z,15.59
2019-06-10T00:49:31.710Z,15.58
2019-06-10T00:50:30.847Z,15.57
2019-06-10T00:51:31.404Z,15.59
2019-06-10T00:52:30.942Z,15.59
2019-06-10T00:53:31.613Z,15.58
2019-06-10T00:54:31.165Z,15.55
2019-06-10T00:55:31.473Z,15.55
2019-06-10T00:56:30.829Z,15.52
2019-06-10T00:57:31.455Z,15.54
2019-06-10T00:58:31.989Z,15.54
2019-06-10T00:59:31.220Z,15.54
2019-06-10T01:00:31.821Z,15.57
2019-06-10T01:01:31.246Z,15.59
2019-06-10T01:02:31.890Z,15.59
2019-06-10T01:03:31.372Z,15.64
2019-06-10T01:04:31.881Z,15.65
2019-06-10T01:05:31.265Z,15.65
2019-06-10T01:06:31.852Z,15.65
2019-06-10T01:07:31.167Z,15.62
2019-06-10T01:08:31.630Z,15.59
2019-06-10T01:09:31.081Z,15.58
2019-06-10T01:10:31.647Z,15.55
2019-06-10T01:11:31.110Z,15.52
2019-06-10T01:12:31.632Z,15.51
2019-06-10T01:13:30.965Z,15.47
2019-06-10T01:14:31.869Z,15.47
2019-06-10T01:15:31.102Z,15.46
2019-06-10T01:16:31.652Z,15.46
2019-06-10T01:17:31.117Z,15.42
2019-06-10T01:18:35.675Z,15.42
2019-06-10T01:19:31.097Z,15.40
2019-06-10T01:20:29.704Z,15.37
2019-06-10T01:21:31.351Z,15.35
2019-06-10T01:22:31.572Z,15.35
2019-06-10T01:23:31.081Z,15.31
2019-06-10T01:24:31.469Z,15.28
2019-06-10T01:25:31.074Z,15.28
2019-06-10T01:26:30.990Z,15.27
2019-06-10T01:27:31.469Z,15.22
2019-06-10T01:28:31.387Z,15.21
2019-06-10T01:29:31.415Z,15.19
2019-06-10T01:30:31.245Z,15.19
2019-06-10T01:31:31.571Z,15.18
2019-06-10T01:32:31.172Z,15.19
2019-06-10T01:33:31.663Z,15.19
2019-06-10T01:34:31.091Z,15.18
2019-06-10T01:35:30.593Z,15.17
2019-06-10T01:36:31.348Z,15.17
2019-06-10T01:37:31.114Z,15.11
2019-06-10T01:38:31.507Z,15.11
2019-06-10T01:39:30.856Z,15.10
2019-06-10T01:40:31.384Z,15.09
2019-06-10T01:41:30.611Z,15.06
2019-06-10T01:42:30.643Z,15.07
2019-06-10T01:43:31.823Z,15.06
2019-06-10T01:44:31.055Z,15.04
2019-06-10T01:45:31.205Z,15.04
2019-06-10T01:46:31.483Z,15.04
2019-06-10T01:47:31.012Z,15.07
2019-06-10T01:48:43.781Z,15.07
2019-06-10T01:49:30.966Z,15.06
2019-06-10T01:50:32.160Z,15.07
2019-06-10T01:51:31.533Z,15.10
2019-06-10T01:52:31.534Z,15.10
2019-06-10T01:53:31.225Z,15.10
2019-06-10T01:54:31.505Z,15.10
2019-06-10T01:55:31.227Z,15.11
2019-06-10T01:56:31.330Z,15.09
2019-06-10T01:57:30.848Z,15.07
2019-06-10T01:58:31.497Z,15.03
2019-06-10T01:59:31.129Z,15.03
2019-06-10T02:00:31.091Z,15.00
2019-06-10T02:01:30.652Z,14.99
2019-06-10T02:02:34.529Z,14.97
2019-06-10T02:03:31.378Z,14.97
2019-06-10T02:04:31.779Z,14.97
2019-06-10T02:05:31.154Z,14.94
2019-06-10T02:06:31.480Z,14.92
2019-06-10T02:07:31.815Z,14.92
2019-06-10T02:08:31.361Z,14.91
2019-06-10T02:09:31.051Z,14.89
2019-06-10T02:10:31.079Z,14.89
2019-06-10T02:11:31.662Z,14.86
2019-06-10T02:12:31.480Z,14.89
2019-06-10T02:13:31.979Z,14.89
2019-06-10T02:14:31.563Z,14.89
2019-06-10T02:15:31.397Z,14.88
2019-06-10T02:16:29.026Z,14.88
2019-06-10T02:17:31.439Z,14.86
2019-06-10T02:18:28.986Z,14.84
2019-06-10T02:19:30.923Z,14.84
2019-06-10T02:20:31.628Z,14.82
2019-06-10T02:21:31.026Z,14.81
2019-06-10T02:22:31.657Z,14.79
2019-06-10T02:23:31.064Z,14.79
2019-06-10T02:24:31.311Z,14.78
2019-06-10T02:25:30.509Z,14.73
2019-06-10T02:26:30.854Z,14.72
2019-06-10T02:27:31.120Z,14.72
2019-06-10T02:28:31.345Z,14.69
2019-06-10T02:29:30.772Z,14.69
2019-06-10T02:30:41.482Z,14.69
2019-06-10T02:31:37.041Z,14.68
2019-06-10T02:32:36.936Z,14.68
2019-06-10T02:33:34.996Z,14.63
2019-06-10T02:34:33.084Z,14.62
2019-06-10T02:35:43.216Z,14.59
2019-06-10T02:36:35.488Z,14.58
2019-06-10T02:37:32.321Z,14.54
2019-06-10T02:38:35.526Z,14.51
2019-06-10T02:39:35.213Z,14.47
2019-06-10T02:40:36.148Z,14.45
2019-06-10T02:41:35.350Z,14.44
2019-06-10T02:42:35.817Z,14.43
2019-06-10T02:43:32.423Z,14.41
2019-06-10T02:44:33.164Z,14.41
2019-06-10T02:45:33.854Z,14.37
2019-06-10T02:46:31.346Z,14.35
2019-06-10T02:47:33.585Z,14.32
2019-06-10T02:48:30.528Z,14.32
2019-06-10T02:49:46.331Z,14.33
2019-06-10T02:50:33.526Z,14.32
2019-06-10T02:51:43.318Z,14.32
2019-06-10T02:52:32.889Z,14.30
2019-06-10T02:53:32.167Z,14.33
2019-06-10T02:54:35.799Z,14.37
2019-06-10T02:55:37.551Z,14.44
2019-06-10T02:56:35.041Z,14.45
2019-06-10T02:57:36.590Z,14.44
2019-06-10T02:58:34.228Z,14.47
2019-06-10T02:59:32.808Z,14.44
2019-06-10T03:00:39.590Z,14.43
2019-06-10T03:01:34.261Z,14.40
2019-06-10T03:02:35.444Z,14.40
2019-06-10T03:03:39.458Z,14.37
2019-06-10T03:04:32.544Z,14.37
2019-06-10T03:05:39.283Z,14.37
2019-06-10T03:06:33.385Z,14.37
2019-06-10T03:07:32.665Z,14.36
2019-06-10T03:08:32.710Z,14.33
2019-06-10T03:09:32.777Z,14.32
2019-06-10T03:10:32.832Z,14.32
2019-06-10T03:11:35.661Z,14.33
2019-06-10T03:12:29.478Z,14.33
2019-06-10T03:13:28.443Z,14.35
2019-06-10T03:14:28.532Z,14.36
2019-06-10T03:15:29.325Z,14.36
2019-06-10T03:16:28.508Z,14.40
2019-06-10T03:17:29.186Z,14.43
2019-06-10T03:18:28.403Z,14.43
2019-06-10T03:19:41.650Z,14.45
2019-06-10T03:20:29.504Z,14.48
2019-06-10T03:21:28.577Z,14.48
2019-06-10T03:22:29.531Z,14.50
2019-06-10T03:23:28.599Z,14.50
2019-06-10T03:24:28.585Z,14.51
2019-06-10T03:25:28.527Z,14.53
2019-06-10T03:26:28.303Z,14.53
2019-06-10T03:27:28.364Z,14.53
2019-06-10T03:28:28.319Z,14.51
2019-06-10T03:29:28.865Z,14.53
2019-06-10T03:30:44.225Z,14.55
2019-06-10T03:31:37.241Z,14.58
2019-06-10T03:32:35.351Z,14.58
2019-06-10T03:33:40.398Z,14.60
2019-06-10T03:34:35.992Z,14.65
2019-06-10T03:35:29.230Z,14.65
2019-06-10T03:36:28.412Z,14.65
2019-06-10T03:37:28.285Z,14.66
2019-06-10T03:38:28.339Z,14.66
2019-06-10T03:39:28.634Z,14.68
2019-06-10T03:40:29.241Z,14.68
2019-06-10T03:41:28.242Z,14.68
2019-06-10T03:42:28.299Z,14.69
2019-06-10T03:43:28.133Z,14.68
2019-06-10T03:44:28.418Z,14.68
2019-06-10T03:45:28.558Z,14.65
2019-06-10T03:46:29.128Z,14.65
2019-06-10T03:47:28.818Z,14.63
2019-06-10T03:48:28.450Z,14.63
2019-06-10T03:49:28.862Z,14.62
2019-06-10T03:50:28.749Z,14.60
2019-06-10T03:51:28.621Z,14.60
2019-06-10T03:52:28.561Z,14.60
2019-06-10T03:53:28.545Z,14.63
2019-06-10T03:54:29.467Z,14.62
2019-06-10T03:55:29.091Z,14.62
2019-06-10T03:56:28.249Z,14.62
2019-06-10T03:57:28.706Z,14.62
2019-06-10T03:58:29.186Z,14.62
2019-06-10T03:59:29.550Z,14.63
2019-06-10T04:00:28.975Z,14.63
2019-06-10T04:01:29.771Z,14.62
2019-06-10T04:02:28.544Z,14.63
2019-06-10T04:03:29.305Z,14.65
2019-06-10T04:04:28.347Z,14.65
2019-06-10T04:05:28.843Z,14.69
2019-06-10T04:06:29.542Z,14.70
2019-06-10T04:07:30.939Z,14.69
2019-06-10T04:08:28.842Z,14.72
2019-06-10T04:09:28.871Z,14.77
2019-06-10T04:10:29.544Z,14.78
2019-06-10T04:11:29.332Z,14.79
2019-06-10T04:12:29.051Z,14.82
2019-06-10T04:13:28.455Z,14.82
2019-06-10T04:14:28.499Z,14.82
2019-06-10T04:15:29.447Z,14.82
2019-06-10T04:16:28.344Z,14.82
2019-06-10T04:17:28.693Z,14.85
2019-06-10T04:18:29.375Z,14.84
2019-06-10T04:19:28.798Z,14.84
2019-06-10T04:20:29.369Z,14.85
2019-06-10T04:21:28.407Z,14.84
2019-06-10T04:22:28.388Z,14.82
2019-06-10T04:23:28.541Z,14.82
2019-06-10T04:24:28.657Z,14.82
2019-06-10T04:25:29.409Z,14.81
2019-06-10T04:26:28.488Z,14.79
2019-06-10T04:27:28.450Z,14.81
2019-06-10T04:28:28.742Z,14.78
2019-06-10T04:29:28.930Z,14.78
2019-06-10T04:30:28.175Z,14.78
2019-06-10T04:31:28.036Z,14.77
2019-06-10T04:32:29.044Z,14.77
2019-06-10T04:33:28.773Z,14.77
2019-06-10T04:34:30.200Z,14.78
2019-06-10T04:35:27.960Z,14.78
2019-06-10T04:36:28.162Z,14.78
2019-06-10T04:37:28.120Z,14.78
2019-06-10T04:38:27.889Z,14.78
2019-06-10T04:39:28.023Z,14.81
2019-06-10T04:40:28.105Z,14.84
2019-06-10T04:41:29.131Z,14.85
2019-06-10T04:42:28.797Z,14.88
2019-06-10T04:43:28.850Z,14.91
2019-06-10T04:44:28.141Z,14.96
2019-06-10T04:45:28.012Z,15.00
2019-06-10T04:46:28.354Z,15.06
2019-06-10T04:47:28.348Z,15.11
2019-06-10T04:48:29.305Z,15.15
2019-06-10T04:49:28.629Z,15.21
2019-06-10T04:50:37.231Z,15.24
2019-06-10T04:51:29.717Z,15.29
2019-06-10T04:52:28.391Z,15.35
2019-06-10T04:53:28.261Z,15.39
2019-06-10T04:54:28.643Z,15.43
2019-06-10T04:55:27.840Z,15.49
2019-06-10T04:56:28.738Z,15.54
2019-06-10T04:57:28.385Z,15.59
2019-06-10T04:58:28.775Z,15.67
2019-06-10T04:59:28.816Z,15.72
2019-06-10T05:00:28.798Z,15.77
2019-06-10T05:01:28.615Z,15.82
2019-06-10T05:02:28.485Z,15.91
2019-06-10T05:03:28.049Z,15.94
2019-06-10T05:04:28.749Z,16.01
2019-06-10T05:05:28.850Z,16.09
2019-06-10T05:06:28.356Z,16.16
2019-06-10T05:07:32.585Z,16.21
2019-06-10T05:08:29.634Z,16.29
2019-06-10T05:09:28.784Z,16.35
2019-06-10T05:10:28.291Z,16.38
2019-06-10T05:11:28.586Z,16.39
2019-06-10T05:12:27.998Z,16.41
2019-06-10T05:13:28.385Z,16.43
2019-06-10T05:14:28.754Z,16.47
2019-06-10T05:15:28.466Z,16.49
2019-06-10T05:16:30.523Z,16.51
2019-06-10T05:17:29.701Z,16.53
2019-06-10T05:18:27.627Z,16.51
2019-06-10T05:19:28.034Z,16.50
2019-06-10T05:20:44.498Z,16.51
2019-06-10T05:21:29.431Z,16.53
2019-06-10T05:22:28.175Z,16.54
2019-06-10T05:23:27.925Z,16.57
2019-06-10T05:24:29.582Z,16.61
2019-06-10T05:25:28.384Z,16.64
2019-06-10T05:26:28.530Z,16.66
2019-06-10T05:27:28.283Z,16.69
2019-06-10T05:28:27.463Z,16.72
2019-06-10T05:29:28.359Z,16.75
2019-06-10T05:30:28.178Z,16.78
2019-06-10T05:31:28.926Z,16.84
2019-06-10T05:32:27.845Z,16.86
2019-06-10T05:33:27.151Z,16.90
2019-06-10T05:34:28.377Z,16.91
2019-06-10T05:35:28.104Z,16.96
2019-06-10T05:36:28.686Z,16.99
2019-06-10T05:37:27.937Z,17.04
2019-06-10T05:38:29.131Z,17.04
2019-06-10T05:39:27.590Z,17.05
2019-06-10T05:40:27.651Z,17.06
2019-06-10T05:41:27.911Z,17.08
2019-06-10T05:42:28.180Z,17.08
2019-06-10T05:43:27.866Z,17.09
2019-06-10T05:44:28.474Z,17.12
2019-06-10T05:45:27.977Z,17.16
2019-06-10T05:46:27.346Z,17.24
2019-06-10T05:47:29.220Z,17.31
2019-06-10T05:48:26.909Z,17.38
2019-06-10T05:49:27.786Z,17.45
2019-06-10T05:50:28.495Z,17.54
2019-06-10T05:51:27.883Z,17.67
2019-06-10T05:52:27.642Z,17.80
2019-06-10T05:53:28.036Z,18.00
2019-06-10T05:54:27.903Z,18.08
2019-06-10T05:55:27.065Z,18.11
2019-06-10T05:56:27.201Z,18.16
2019-06-10T05:57:29.382Z,18.23
2019-06-10T05:58:27.792Z,18.26
2019-06-10T05:59:27.349Z,18.31
2019-06-10T06:00:27.549Z,18.31
2019-06-10T06:01:27.552Z,18.29
2019-06-10T06:02:27.722Z,18.31
2019-06-10T06:03:27.768Z,18.25
2019-06-10T06:04:26.535Z,18.20
2019-06-10T06:05:26.526Z,18.25
2019-06-10T06:06:27.055Z,18.25
2019-06-10T06:07:27.053Z,18.31
2019-06-10T06:08:27.099Z,18.40
2019-06-10T06:09:27.158Z,18.40
2019-06-10T06:10:27.222Z,18.41
2019-06-10T06:11:27.349Z,18.37
2019-06-10T06:12:27.546Z,18.35
2019-06-10T06:13:27.438Z,18.45
2019-06-10T06:14:27.509Z,18.55
2019-06-10T06:15:27.594Z,18.50
2019-06-10T06:16:27.629Z,18.44
2019-06-10T06:17:27.870Z,18.38
2019-06-10T06:18:26.482Z,18.35
2019-06-10T06:19:26.379Z,18.34
2019-06-10T06:20:27.048Z,18.35
2019-06-10T06:21:31.463Z,18.33
2019-06-10T06:22:27.471Z,18.31
2019-06-10T06:23:26.886Z,18.31
2019-06-10T06:24:27.465Z,18.40
2019-06-10T06:25:27.629Z,18.47
2019-06-10T06:26:26.836Z,18.52
2019-06-10T06:27:26.739Z,18.58
2019-06-10T06:28:26.293Z,18.68
2019-06-10T06:29:26.909Z,18.73
2019-06-10T06:30:26.260Z,18.63
2019-06-10T06:31:26.244Z,18.68
2019-06-10T06:32:26.341Z,18.71
2019-06-10T06:33:27.317Z,18.70
2019-06-10T06:34:26.868Z,18.75
2019-06-10T06:35:26.410Z,18.83
2019-06-10T06:36:26.612Z,18.80
2019-06-10T06:37:26.875Z,18.84
2019-06-10T06:38:26.886Z,18.89
2019-06-10T06:39:27.037Z,18.92
2019-06-10T06:40:27.181Z,18.86
2019-06-10T06:41:27.352Z,18.84
2019-06-10T06:42:27.192Z,18.95
2019-06-10T06:43:28.954Z,19.04
2019-06-10T06:44:26.098Z,19.11
2019-06-10T06:45:26.108Z,19.07
2019-06-10T06:46:26.090Z,19.00
2019-06-10T06:47:26.077Z,19.09
2019-06-10T06:48:26.078Z,19.14
2019-06-10T06:49:26.138Z,19.08
2019-06-10T06:50:26.044Z,18.98
2019-06-10T06:51:38.993Z,19.02
2019-06-10T06:52:56.732Z,19.02
2019-06-10T06:53:33.302Z,19.04
2019-06-10T06:54:27.051Z,18.98
2019-06-10T06:55:25.996Z,18.99
2019-06-10T06:56:25.946Z,19.00
2019-06-10T06:57:25.958Z,19.11
2019-06-10T06:58:27.016Z,19.21
2019-06-10T06:59:25.976Z,19.27
2019-06-10T07:00:42.994Z,19.34
2019-06-10T07:01:27.664Z,19.37
2019-06-10T07:02:25.895Z,19.41
2019-06-10T07:03:25.889Z,19.40
2019-06-10T07:04:25.862Z,19.40
2019-06-10T07:05:25.857Z,19.48
2019-06-10T07:06:25.887Z,19.55
2019-06-10T07:07:25.929Z,19.56
2019-06-10T07:08:25.830Z,19.66
2019-06-10T07:09:25.909Z,19.74
2019-06-10T07:10:25.845Z,19.84
2019-06-10T07:11:25.824Z,19.99
2019-06-10T07:12:25.773Z,20.07
2019-06-10T07:13:25.855Z,20.09
2019-06-10T07:14:25.735Z,20.29
2019-06-10T07:15:25.788Z,20.59
2019-06-10T07:16:25.751Z,20.67
2019-06-10T07:17:25.963Z,20.85
2019-06-10T07:18:25.722Z,21.03
2019-06-10T07:19:25.733Z,21.00
2019-06-10T07:20:25.744Z,20.99
2019-06-10T07:21:25.735Z,20.93
2019-06-10T07:22:26.845Z,21.03
2019-06-10T07:23:25.655Z,21.02
2019-06-10T07:24:25.670Z,21.14
2019-06-10T07:25:25.664Z,21.29
2019-06-10T07:26:25.670Z,21.45
2019-06-10T07:27:25.648Z,21.54
2019-06-10T07:28:25.667Z,21.73
2019-06-10T07:29:25.620Z,21.61
2019-06-10T07:30:25.642Z,21.48
2019-06-10T07:31:27.990Z,21.35
2019-06-10T07:32:25.552Z,21.33
2019-06-10T07:33:25.569Z,21.29
2019-06-10T07:34:25.565Z,21.18
2019-06-10T07:35:25.598Z,21.24
2019-06-10T07:36:25.516Z,21.24
2019-06-10T07:37:25.520Z,21.30
2019-06-10T07:38:26.342Z,21.24
2019-06-10T07:39:25.536Z,21.32
2019-06-10T07:40:25.500Z,21.36
2019-06-10T07:41:25.471Z,21.32
2019-06-10T07:42:25.440Z,21.20
2019-06-10T07:43:25.556Z,21.20
2019-06-10T07:44:25.443Z,21.20
2019-06-10T07:45:25.425Z,21.22
2019-06-10T07:46:25.401Z,21.33
2019-06-10T07:47:25.439Z,21.32
2019-06-10T07:48:25.422Z,21.43
2019-06-10T07:49:25.509Z,21.54
2019-06-10T07:50:25.345Z,21.55
2019-06-10T07:51:25.395Z,21.67
2019-06-10T07:52:25.348Z,21.69
2019-06-10T07:53:25.418Z,21.45
2019-06-10T07:54:25.354Z,21.21
2019-06-10T07:55:25.326Z,21.39
2019-06-10T07:56:25.330Z,21.62
2019-06-10T07:57:25.270Z,21.82
2019-06-10T07:58:25.269Z,22.02
2019-06-10T07:59:25.253Z,22.11
2019-06-10T08:00:25.313Z,22.14
2019-06-10T08:01:25.254Z,22.13
2019-06-10T08:02:25.225Z,22.20
2019-06-10T08:03:25.264Z,22.17
2019-06-10T08:04:25.241Z,22.07
2019-06-10T08:05:25.207Z,22.06
2019-06-10T08:06:25.379Z,22.00
2019-06-10T08:07:25.179Z,21.95
2019-06-10T08:08:25.197Z,21.83
2019-06-10T08:09:25.200Z,21.76
2019-06-10T08:10:25.165Z,21.77
2019-06-10T08:11:25.200Z,21.79
2019-06-10T08:12:25.208Z,21.80
2019-06-10T08:13:25.185Z,21.82
2019-06-10T08:14:25.128Z,21.70
2019-06-10T08:15:25.099Z,21.73
2019-06-10T08:16:25.112Z,21.75
2019-06-10T08:17:25.073Z,21.75
2019-06-10T08:18:26.121Z,21.92
2019-06-10T08:19:34.314Z,21.98
2019-06-10T08:20:26.057Z,22.02
2019-06-10T08:21:25.151Z,22.06
2019-06-10T08:22:33.289Z,22.11
2019-06-10T08:23:26.025Z,22.06
2019-06-10T08:24:24.984Z,22.11
2019-06-10T08:25:24.999Z,22.32
2019-06-10T08:26:25.018Z,22.36
2019-06-10T08:27:25.003Z,22.47
2019-06-10T08:28:25.032Z,22.63
2019-06-10T08:29:24.959Z,22.66
2019-06-10T08:30:27.634Z,22.88
2019-06-10T08:31:24.942Z,23.02
2019-06-10T08:32:25.174Z,23.03
2019-06-10T08:33:27.166Z,23.18
2019-06-10T08:34:24.993Z,23.37
2019-06-10T08:35:38.334Z,23.51
2019-06-10T08:36:25.922Z,23.83
2019-06-10T08:37:24.874Z,23.87
2019-06-10T08:38:24.864Z,23.91
2019-06-10T08:39:24.888Z,23.99
2019-06-10T08:40:24.802Z,24.20
2019-06-10T08:41:24.872Z,24.60
2019-06-10T08:42:24.882Z,25.23
2019-06-10T08:43:24.771Z,24.57
2019-06-10T08:44:24.787Z,23.99
2019-06-10T08:45:24.801Z,23.65
2019-06-10T08:46:24.851Z,24.03
2019-06-10T08:47:24.794Z,24.91
2019-06-10T08:48:24.742Z,25.35
2019-06-10T08:49:24.798Z,25.53
2019-06-10T08:50:24.936Z,25.55
2019-06-10T08:51:24.795Z,25.36
2019-06-10T08:52:25.753Z,25.68
2019-06-10T08:53:24.852Z,25.41
2019-06-10T08:54:24.722Z,25.29
2019-06-10T08:55:24.694Z,25.28
2019-06-10T08:56:24.645Z,24.99
2019-06-10T08:57:24.653Z,25.08
2019-06-10T08:58:24.756Z,24.76
2019-06-10T08:59:24.676Z,24.42
2019-06-10T09:00:25.650Z,24.24
2019-06-10T09:01:24.647Z,24.42
2019-06-10T09:02:25.499Z,24.40
2019-06-10T09:03:24.607Z,24.63
2019-06-10T09:04:24.581Z,25.31
2019-06-10T09:05:24.558Z,25.95
2019-06-10T09:06:24.658Z,26.43
2019-06-10T09:07:24.573Z,26.23
2019-06-10T09:08:24.557Z,25.33
2019-06-10T09:09:24.690Z,24.70
2019-06-10T09:10:24.749Z,25.21
2019-06-10T09:11:24.623Z,25.53
2019-06-10T09:12:32.835Z,25.48
2019-06-10T09:13:26.480Z,25.75
2019-06-10T09:14:24.516Z,25.93
2019-06-10T09:15:24.465Z,26.37
2019-06-10T09:16:24.464Z,26.97
2019-06-10T09:17:24.508Z,27.78
2019-06-10T09:18:24.397Z,27.85
2019-06-10T09:19:24.519Z,27.71
2019-06-10T09:20:24.465Z,27.80
2019-06-10T09:21:24.425Z,28.01
2019-06-10T09:22:24.447Z,27.75
2019-06-10T09:23:25.677Z,27.96
2019-06-10T09:24:24.406Z,28.20
2019-06-10T09:25:24.380Z,28.00
2019-06-10T09:26:24.326Z,28.17
2019-06-10T09:27:26.854Z,27.87
2019-06-10T09:28:24.375Z,27.70
2019-06-10T09:29:24.373Z,28.17
2019-06-10T09:30:24.324Z,28.15
2019-06-10T09:31:24.330Z,28.00
2019-06-10T09:32:24.280Z,28.32
2019-06-10T09:33:24.290Z,28.59
2019-06-10T09:34:24.278Z,28.56
2019-06-10T09:35:24.295Z,28.51
2019-06-10T09:36:24.313Z,28.45
2019-06-10T09:37:24.241Z,28.27
2019-06-10T09:38:24.505Z,28.30
2019-06-10T09:39:24.293Z,28.37
2019-06-10T09:40:24.217Z,28.05
2019-06-10T09:41:36.408Z,27.55
2019-06-10T09:42:25.177Z,26.97
2019-06-10T09:43:24.175Z,26.53
2019-06-10T09:44:24.166Z,26.19
2019-06-10T09:45:24.172Z,25.78
2019-06-10T09:46:24.130Z,25.44
2019-06-10T09:47:24.180Z,25.22
2019-06-10T09:48:24.115Z,25.21
2019-06-10T09:49:24.144Z,25.38
2019-06-10T09:50:24.180Z,25.83
2019-06-10T09:51:24.188Z,26.33
2019-06-10T09:52:24.168Z,27.07
2019-06-10T09:53:32.799Z,27.55
2019-06-10T09:54:25.074Z,28.20
2019-06-10T09:55:24.138Z,28.29
2019-06-10T09:56:24.091Z,28.42
2019-06-10T09:57:24.221Z,28.11
2019-06-10T09:58:24.128Z,27.54
2019-06-10T09:59:24.008Z,27.51
2019-06-10T10:00:24.016Z,27.54
2019-06-10T10:01:24.719Z,27.51
2019-06-10T10:02:24.460Z,28.05
2019-06-10T10:03:24.057Z,27.83
2019-06-10T10:04:23.978Z,27.05
2019-06-10T10:05:24.016Z,27.33
2019-06-10T10:06:23.964Z,27.40
2019-06-10T10:07:24.072Z,27.71
2019-06-10T10:08:23.986Z,27.78
2019-06-10T10:09:23.930Z,27.78
2019-06-10T10:10:24.144Z,27.54
2019-06-10T10:11:27.575Z,27.67
2019-06-10T10:12:23.884Z,27.74
2019-06-10T10:13:24.022Z,27.85
2019-06-10T10:14:23.906Z,28.22
2019-06-10T10:15:30.574Z,28.04
2019-06-10T10:16:24.884Z,27.58
2019-06-10T10:17:24.028Z,28.07
2019-06-10T10:18:23.874Z,28.60
2019-06-10T10:19:23.833Z,28.33
2019-06-10T10:20:23.928Z,28.41
2019-06-10T10:21:23.833Z,28.02
2019-06-10T10:22:23.956Z,27.49
2019-06-10T10:23:23.857Z,27.85
2019-06-10T10:24:24.075Z,28.41
2019-06-10T10:25:23.850Z,28.47
2019-06-10T10:26:23.972Z,27.52
2019-06-10T10:27:24.875Z,27.35
2019-06-10T10:28:26.334Z,27.07
2019-06-10T10:29:23.819Z,27.02
2019-06-10T10:30:24.544Z,27.36
2019-06-10T10:31:24.129Z,27.71
2019-06-10T10:32:23.872Z,28.26
2019-06-10T10:33:28.955Z,28.91
2019-06-10T10:34:24.778Z,28.97
2019-06-10T10:35:24.275Z,29.07
2019-06-10T10:36:23.646Z,29.39
2019-06-10T10:37:23.954Z,29.50
2019-06-10T10:38:23.639Z,29.36
2019-06-10T10:39:24.594Z,29.49
2019-06-10T10:40:24.423Z,28.59
2019-06-10T10:41:24.220Z,28.01
2019-06-10T10:42:23.844Z,27.96
2019-06-10T10:43:32.686Z,28.29
2019-06-10T10:44:25.549Z,28.33
2019-06-10T10:45:24.598Z,28.08
2019-06-10T10:46:24.274Z,27.37
2019-06-10T10:47:27.015Z,27.18
2019-06-10T10:48:23.629Z,27.07
2019-06-10T10:49:23.595Z,26.84
2019-06-10T10:50:24.683Z,26.45
2019-06-10T10:51:25.168Z,25.91
2019-06-10T10:52:23.844Z,25.51
2019-06-10T10:53:23.885Z,25.14
2019-06-10T10:54:32.869Z,24.92
2019-06-10T10:55:24.410Z,25.07
2019-06-10T10:56:23.418Z,25.35
2019-06-10T10:57:23.414Z,25.51
2019-06-10T10:58:23.433Z,25.63
2019-06-10T10:59:23.377Z,26.36
2019-06-10T11:00:23.382Z,26.59
2019-06-10T11:01:23.801Z,27.18
2019-06-10T11:02:23.555Z,27.68
2019-06-10T11:03:23.759Z,27.52
2019-06-10T11:04:23.663Z,26.97
2019-06-10T11:05:24.455Z,27.10
2019-06-10T11:06:23.532Z,27.42
2019-06-10T11:07:23.480Z,27.82
2019-06-10T11:08:23.482Z,28.35
2019-06-10T11:09:23.838Z,28.29
2019-06-10T11:10:23.731Z,27.37
2019-06-10T11:11:23.661Z,26.52
2019-06-10T11:12:23.517Z,26.40
2019-06-10T11:13:23.565Z,27.59
2019-06-10T11:14:23.317Z,28.70
2019-06-10T11:15:23.262Z,29.12
2019-06-10T11:16:24.020Z,29.66
2019-06-10T11:17:23.571Z,30.25
2019-06-10T11:18:23.296Z,30.48
2019-06-10T11:19:33.616Z,31.03
2019-06-10T11:20:23.300Z,30.78
2019-06-10T11:21:23.449Z,29.35
2019-06-10T11:22:23.943Z,28.00
2019-06-10T11:23:23.289Z,28.74
2019-06-10T11:24:33.512Z,29.59
2019-06-10T11:25:24.385Z,30.10
2019-06-10T11:26:26.671Z,30.48
2019-06-10T11:27:24.020Z,30.44
2019-06-10T11:28:23.577Z,30.66
2019-06-10T11:29:23.244Z,30.68
2019-06-10T11:30:23.618Z,29.86
2019-06-10T11:31:23.417Z,28.69
2019-06-10T11:32:23.167Z,27.37
2019-06-10T11:33:23.275Z,26.73
2019-06-10T11:34:23.154Z,27.37
2019-06-10T11:35:23.136Z,28.76
2019-06-10T11:36:23.856Z,28.56
2019-06-10T11:37:29.403Z,27.65
2019-06-10T11:38:23.528Z,27.36
2019-06-10T11:39:23.347Z,27.29
2019-06-10T11:40:24.751Z,27.65
2019-06-10T11:41:23.632Z,27.45
2019-06-10T11:42:23.495Z,26.84
2019-06-10T11:43:23.020Z,27.36
2019-06-10T11:44:23.024Z,27.92
2019-06-10T11:45:22.942Z,28.26
2019-06-10T11:46:22.926Z,28.39
2019-06-10T11:47:23.071Z,28.60
2019-06-10T11:48:23.815Z,28.41
2019-06-10T11:49:23.797Z,27.90
2019-06-10T11:50:23.346Z,27.77
2019-06-10T11:51:23.414Z,27.55
2019-06-10T11:52:23.073Z,27.22
2019-06-10T11:53:23.050Z,27.05
2019-06-10T11:54:24.190Z,27.26
2019-06-10T11:55:23.794Z,27.45
2019-06-10T11:56:22.868Z,27.73
2019-06-10T11:57:22.975Z,27.90
2019-06-10T11:58:23.781Z,28.32
2019-06-10T11:59:23.150Z,28.00
2019-06-10T12:00:24.107Z,27.82
2019-06-10T12:01:24.563Z,27.52
2019-06-10T12:02:27.362Z,27.37
2019-06-10T12:03:23.161Z,27.22
2019-06-10T12:04:24.977Z,26.93
2019-06-10T12:05:23.473Z,26.53
2019-06-10T12:06:23.010Z,26.22
2019-06-10T12:07:24.359Z,26.23
2019-06-10T12:08:23.627Z,26.19
2019-06-10T12:09:23.031Z,26.10
2019-06-10T12:10:27.065Z,26.13
2019-06-10T12:11:25.339Z,26.00
2019-06-10T12:12:22.938Z,25.55
2019-06-10T12:13:22.761Z,25.48
2019-06-10T12:14:26.821Z,25.44
2019-06-10T12:15:22.921Z,25.32
2019-06-10T12:17:14.704Z,25.43
2019-06-10T12:17:40.889Z,25.60
2019-06-10T12:18:23.844Z,25.75
2019-06-10T12:19:23.520Z,25.63
2019-06-10T12:20:22.949Z,25.72
2019-06-10T12:21:23.517Z,25.84
2019-06-10T12:22:22.796Z,25.69
2019-06-10T12:23:22.821Z,25.68
2019-06-10T12:24:24.427Z,25.38
2019-06-10T12:25:32.460Z,25.21
2019-06-10T12:26:23.679Z,25.36
2019-06-10T12:27:24.371Z,25.47
2019-06-10T12:28:25.048Z,25.47
2019-06-10T12:29:22.664Z,25.51
2019-06-10T12:30:22.550Z,25.54
2019-06-10T12:31:23.287Z,25.50
2019-06-10T12:32:22.747Z,25.53
2019-06-10T12:33:25.416Z,25.58
2019-06-10T12:34:22.819Z,25.40
2019-06-10T12:35:22.991Z,25.41
2019-06-10T12:36:23.808Z,25.53
2019-06-10T12:37:23.838Z,25.60
2019-06-10T12:38:22.903Z,25.65
2019-06-10T12:39:23.016Z,25.90
2019-06-10T12:40:22.391Z,26.00
2019-06-10T12:41:23.266Z,26.18
2019-06-10T12:42:22.605Z,26.19
2019-06-10T12:43:23.175Z,26.37
2019-06-10T12:44:22.837Z,26.66
2019-06-10T12:45:23.322Z,26.78
2019-06-10T12:46:23.162Z,26.93
2019-06-10T12:47:22.928Z,27.14
2019-06-10T12:48:22.415Z,27.25
2019-06-10T12:49:22.254Z,27.02
2019-06-10T12:50:22.256Z,27.18
2019-06-10T12:51:22.823Z,27.39
2019-06-10T12:52:22.947Z,27.55